America, Illinois
Current Conditions -  °F | °C
As of 7:55 AM on Sunday 25 Jan 2015 (Local Time) from KCIR Reporting Station
Light Rain Light Rain  
Wind Chill: 41°   Ceiling: 5500
Heat Index: 44°   Visibility: 10mi
Dew Point: 37°   Wind: 5mph
Humidity: 76%   Direction: 200°SSW
Pressure: 29.68"   Gusts: NA
Location:  37.1575°N, 89.1781°W
Report Text: KCIR 251355Z AUTO 20004KT 10SM -RA BKN055 OVC070 06/03 A2968 RMK AO2 T00640025
Loading
Personal Weather Stations






























Interactive Weather Map New forecast layout! Learn more

10-Day Weather Forecast

Advertisements
Track Severe Weather on mobile